Time;durP1;ratioP1;P1;durP2;ratioP2;P2;SDS_P1;SDS_P2;PMS_P1;PMS_P2;Temp;Humidity;BMP_temperature;BMP_pressure;BME280_temperature;BME280_humidity;BME280_pressure;Samples;Min_cycle;Max_cycle;Signal;HPM_P1;HPM_P2
2022/12/26 00:01:47;;;;;;;89.50;59.70;;;;;;;2.85;100.00;99059.77;106064;1288;59772;-70
2022/12/26 00:04:15;;;;;;;;;;;;;;;2.82;100.00;99053.91;106083;1288;65044;-71
2022/12/26 00:06:42;;;;;;;91.60;61.00;;;;;;;2.78;100.00;99050.73;106056;1287;59041;-71
2022/12/26 00:09:09;;;;;;;88.00;61.30;;;;;;;2.76;100.00;99048.35;106073;1287;59051;-70
2022/12/26 00:11:35;;;;;;;79.20;59.80;;;;;;;2.74;100.00;99037.16;106063;1288;66806;-70
2022/12/26 00:14:05;;;;;;;79.60;57.80;;;;;;;2.73;100.00;99026.70;106058;1288;58951;-70
2022/12/26 00:16:32;;;;;;;85.70;57.20;;;;;;;2.72;100.00;99018.12;106071;1287;63840;-71
2022/12/26 00:18:58;;;;;;;83.60;57.90;;;;;;;2.71;100.00;99007.99;105859;1290;59008;-71
2022/12/26 00:21:26;;;;;;;86.30;58.00;;;;;;;2.68;100.00;99004.77;105911;1290;58900;-69
2022/12/26 00:23:54;;;;;;;84.80;59.40;;;;;;;2.66;100.00;99008.67;106066;1281;67011;-70
2022/12/26 00:26:23;;;;;;;82.20;56.40;;;;;;;2.65;100.00;99019.25;105866;1288;60050;-70
2022/12/26 00:28:49;;;;;;;76.30;54.50;;;;;;;2.64;100.00;99020.67;106070;1289;64907;-70
2022/12/26 00:31:21;;;;;;;80.70;56.50;;;;;;;2.64;100.00;99023.98;105854;1284;58945;-70
2022/12/26 00:33:48;;;;;;;80.70;55.00;;;;;;;2.64;100.00;99025.42;105782;1295;58985;-70
2022/12/26 00:36:18;;;;;;;86.80;58.60;;;;;;;2.63;100.00;99028.09;105693;1287;65698;-70
2022/12/26 00:38:45;;;;;;;83.80;56.10;;;;;;;2.62;100.00;99031.77;106060;1288;60171;-70
2022/12/26 00:41:14;;;;;;;88.30;59.10;;;;;;;2.63;100.00;99031.23;106066;1288;64815;-70
2022/12/26 00:43:41;;;;;;;82.10;57.20;;;;;;;2.64;100.00;99030.85;105588;1297;58971;-70
2022/12/26 00:46:07;;;;;;;84.80;58.10;;;;;;;2.67;100.00;99030.91;106072;1288;59268;-71
2022/12/26 00:48:34;;;;;;;79.30;57.10;;;;;;;2.69;100.00;99019.97;106086;1282;67010;-71
2022/12/26 00:51:02;;;;;;;84.10;58.80;;;;;;;2.71;100.00;99011.14;106091;1287;60894;-70
2022/12/26 00:53:28;;;;;;;88.80;58.80;;;;;;;2.73;100.00;99009.33;106080;1295;65193;-70
2022/12/26 00:55:55;;;;;;;82.00;55.70;;;;;;;2.75;100.00;99010.31;105777;1287;58970;-70
2022/12/26 00:58:23;;;;;;;79.40;57.10;;;;;;;2.77;100.00;99018.15;106093;1288;58950;-70
2022/12/26 01:00:50;;;;;;;79.00;56.40;;;;;;;2.79;100.00;99010.68;106054;1273;67549;-70
2022/12/26 01:03:18;;;;;;;80.40;56.90;;;;;;;2.82;100.00;99005.50;105726;1289;68496;-70
2022/12/26 01:05:48;;;;;;;84.70;58.50;;;;;;;2.83;100.00;99007.36;106054;1289;64997;-70
2022/12/26 01:08:17;;;;;;;79.80;56.40;;;;;;;2.84;100.00;99010.67;106049;1281;58997;-70
2022/12/26 01:10:45;;;;;;;78.30;55.40;;;;;;;2.86;100.00;99009.90;106068;1289;58873;-70
2022/12/26 01:13:11;;;;;;;74.90;53.90;;;;;;;2.88;100.00;99001.42;106080;1281;65978;-70
2022/12/26 01:15:38;;;;;;;76.90;55.30;;;;;;;2.88;100.00;98993.87;106069;1285;58991;-70
2022/12/26 01:18:05;;;;;;;77.10;53.40;;;;;;;2.89;100.00;98989.98;106066;1287;58957;-70
2022/12/26 01:20:32;;;;;;;78.60;53.40;;;;;;;2.89;100.00;98983.48;106077;1289;59029;-71
2022/12/26 01:22:58;;;;;;;76.70;53.10;;;;;;;2.91;100.00;98978.31;105692;1297;59006;-71
2022/12/26 01:25:24;;;;;;;81.40;57.20;;;;;;;2.92;100.00;98978.81;106071;1282;59045;-71
2022/12/26 01:27:53;;;;;;;74.70;53.90;;;;;;;2.93;100.00;98979.30;105810;1295;59741;-70
2022/12/26 01:30:18;;;;;;;74.30;53.60;;;;;;;2.93;100.00;98980.52;105931;1291;64058;-70
2022/12/26 01:32:45;;;;;;;75.70;53.00;;;;;;;2.93;100.00;98981.24;105762;1294;59244;-70
2022/12/26 01:35:11;;;;;;;71.20;51.60;;;;;;;2.94;100.00;98986.45;106098;1288;58917;-70
2022/12/26 01:37:37;;;;;;;76.60;55.90;;;;;;;2.94;100.00;98984.35;106061;1281;58980;-70
2022/12/26 01:40:04;;;;;;;74.20;54.60;;;;;;;2.95;100.00;98990.11;106083;1282;58972;-69
2022/12/26 01:42:37;;;;;;;74.40;52.30;;;;;;;2.95;100.00;98998.71;106061;1289;59210;-70
2022/12/26 01:45:26;;;;;;;73.70;52.00;;;;;;;2.97;100.00;99008.30;105752;1294;58926;-70
2022/12/26 01:48:19;;;;;;;68.20;52.10;;;;;;;2.98;100.00;99016.36;105455;1296;58960;-70
2022/12/26 01:50:54;;;;;;;71.60;51.80;;;;;;;2.98;100.00;99010.72;105471;1296;66014;-70
2022/12/26 01:53:45;;;;;;;73.80;49.60;;;;;;;2.99;100.00;99000.84;105475;1297;61039;-70
2022/12/26 01:56:30;;;;;;;70.30;50.10;;;;;;;3.00;100.00;98998.00;105378;1293;64175;-71
2022/12/26 01:59:10;;;;;;;72.10;51.80;;;;;;;3.01;100.00;98996.55;105454;1296;59262;-70
2022/12/26 02:01:41;;;;;;;68.10;49.70;;;;;;;3.04;100.00;98991.89;105448;1296;59121;-70
2022/12/26 02:06:58;;;;;;;71.90;52.40;;;;;;;3.07;100.00;98988.96;105440;1297;60849;-70
2022/12/26 02:09:28;;;;;;;71.80;52.80;;;;;;;3.08;100.00;98984.02;105440;1290;65140;-70
2022/12/26 02:12:10;;;;;;;73.30;54.40;;;;;;;3.08;100.00;98983.48;105464;1297;59255;-71
2022/12/26 02:14:37;;;;;;;74.60;53.90;;;;;;;3.09;100.00;98985.92;105414;1304;58958;-71
2022/12/26 02:17:04;;;;;;;70.90;52.20;;;;;;;3.09;100.00;98987.50;105477;1297;66850;-70
2022/12/26 02:19:48;;;;;;;76.10;53.90;;;;;;;3.10;100.00;98984.15;105466;1290;60710;-71
2022/12/26 02:23:00;;;;;;;70.20;51.10;;;;;;;3.10;100.00;98981.67;105448;1297;64003;-71
2022/12/26 02:25:41;;;;;;;77.10;53.30;;;;;;;3.10;100.00;98967.80;105105;1297;58848;-71
2022/12/26 02:28:25;;;;;;;74.30;52.20;;;;;;;3.09;100.00;98956.25;105382;1297;59099;-71
2022/12/26 02:31:24;;;;;;;69.90;50.70;;;;;;;3.10;100.00;98945.36;105189;1303;66618;-71
2022/12/26 02:34:18;;;;;;;70.00;50.90;;;;;;;3.10;100.00;98933.25;105408;1303;60904;-71
2022/12/26 02:37:02;;;;;;;69.30;48.90;;;;;;;3.08;100.00;98919.61;105360;1297;64887;-71
2022/12/26 02:39:35;;;;;;;68.40;49.10;;;;;;;3.08;100.00;98896.79;105362;1296;58927;-71
2022/12/26 02:42:26;;;;;;;71.80;47.20;;;;;;;3.08;100.00;98881.17;105383;1297;58938;-71
2022/12/26 02:48:29;;;;;;;74.80;52.40;;;;;;;3.00;100.00;98877.09;105215;1298;59173;-73
2022/12/26 03:13:50;;;;;;;74.90;52.40;;;;;;;2.69;100.00;98887.73;106088;1289;67020;-70
2022/12/26 03:19:07;;;;;;;77.90;53.20;;;;;;;2.61;100.00;98900.46;106058;1289;65007;-71
2022/12/26 03:21:39;;;;;;;76.90;54.10;;;;;;;2.56;100.00;98911.31;106050;1288;58969;-71
2022/12/26 03:24:08;;;;;;;71.00;52.30;;;;;;;2.53;100.00;98918.63;106063;1281;58831;-70
2022/12/26 03:26:39;;;;;;;77.70;54.80;;;;;;;2.50;100.00;98921.89;106063;1287;67154;-71
2022/12/26 03:32:05;;;;;;;75.70;52.50;;;;;;;2.44;100.00;98918.26;106062;1288;65038;-70
2022/12/26 03:34:36;;;;;;;67.90;50.90;;;;;;;2.40;100.00;98908.20;105839;1289;58928;-70
2022/12/26 03:37:28;;;;;;;72.30;54.10;;;;;;;2.38;100.00;98889.88;106069;1288;58810;-70
2022/12/26 04:44:07;;;;;;;84.20;59.70;;;;;;;1.82;100.00;98850.30;105999;1292;64772;-71
2022/12/26 04:46:37;;;;;;;79.50;61.30;;;;;;;1.81;100.00;98851.02;105988;1287;58749;-71
2022/12/26 04:51:51;;;;;;;83.70;61.80;;;;;;;1.76;100.00;98874.33;106009;1292;65689;-71
2022/12/26 04:54:18;;;;;;;85.80;65.50;;;;;;;1.72;100.00;98883.19;105990;1292;60040;-71
2022/12/26 04:56:44;;;;;;;89.00;68.00;;;;;;;1.70;100.00;98888.32;105984;1292;58878;-71
2022/12/26 04:59:10;;;;;;;87.50;67.80;;;;;;;1.71;100.00;98889.37;105961;1291;58929;-71
2022/12/26 05:09:59;;;;;;;82.30;59.50;;;;;;;1.60;100.00;98896.88;105981;1295;64914;-70
2022/12/26 05:12:25;;;;;;;83.60;60.60;;;;;;;1.56;100.00;98897.54;105981;1295;58939;-70
2022/12/26 05:14:51;;;;;;;77.30;57.30;;;;;;;1.52;100.00;98906.60;105987;1292;59208;-71
2022/12/26 05:31:11;;;;;;;91.20;66.00;;;;;;;1.24;100.00;98888.56;105995;1291;66973;-71
2022/12/26 05:36:26;;;;;;;86.20;65.70;;;;;;;1.21;100.00;98879.91;106004;1291;62444;-70
2022/12/26 05:38:54;;;;;;;87.20;62.90;;;;;;;1.18;100.00;98874.08;105999;1295;59345;-71
2022/12/26 05:41:22;;;;;;;91.40;69.80;;;;;;;1.14;100.00;98875.41;105683;1288;132204;-71
2022/12/26 05:43:48;;;;;;;90.90;70.40;;;;;;;1.09;100.00;98883.61;106010;1291;65909;-70
2022/12/26 05:46:14;;;;;;;88.40;67.20;;;;;;;1.08;100.00;98893.11;105982;1287;59173;-70
2022/12/26 05:48:40;;;;;;;96.10;69.30;;;;;;;1.06;100.00;98907.50;105981;1287;58909;-70
2022/12/26 05:51:07;;;;;;;94.50;72.00;;;;;;;1.02;100.00;98915.82;105985;1294;59086;-69
2022/12/26 05:53:33;;;;;;;93.70;72.50;;;;;;;1.00;100.00;98917.14;106005;1287;58889;-69
2022/12/26 05:56:06;;;;;;;91.20;73.30;;;;;;;0.98;100.00;98912.98;105992;1294;58899;-69
2022/12/26 05:58:32;;;;;;;94.90;74.80;;;;;;;0.96;100.00;98916.34;105763;1298;61898;-70
2022/12/26 06:01:07;;;;;;;107.20;78.20;;;;;;;0.92;100.00;98920.34;105979;1295;59052;-70
2022/12/26 06:03:34;;;;;;;100.30;76.80;;;;;;;0.87;100.00;98929.20;105969;1289;59228;-70
2022/12/26 06:06:00;;;;;;;98.30;76.60;;;;;;;0.86;100.00;98936.23;106004;1292;59033;-70
2022/12/26 06:08:27;;;;;;;104.50;80.20;;;;;;;0.85;100.00;98932.06;105986;1291;58954;-70
2022/12/26 06:10:53;;;;;;;107.80;81.20;;;;;;;0.82;100.00;98921.31;105987;1290;58846;-70
2022/12/26 06:13:18;;;;;;;99.50;76.30;;;;;;;0.77;100.00;98920.57;105979;1295;59012;-70
2022/12/26 06:15:45;;;;;;;98.20;75.30;;;;;;;0.74;100.00;98916.30;105969;1287;58877;-71
2022/12/26 06:18:11;;;;;;;94.10;69.80;;;;;;;0.70;100.00;98916.96;106005;1287;59024;-70
2022/12/26 06:20:37;;;;;;;97.90;73.20;;;;;;;0.67;100.00;98911.60;105985;1295;59419;-70
2022/12/26 06:23:04;;;;;;;105.90;78.80;;;;;;;0.66;100.00;98913.73;105982;1292;58947;-70
2022/12/26 06:25:29;;;;;;;139.00;99.30;;;;;;;0.68;100.00;98914.73;105986;1295;58907;-70
2022/12/26 06:27:55;;;;;;;127.10;98.60;;;;;;;0.70;100.00;98914.84;105996;1293;58912;-70
2022/12/26 06:30:22;;;;;;;117.10;91.90;;;;;;;0.71;100.00;98906.59;105646;1293;59344;-71
2022/12/26 06:32:48;;;;;;;116.30;89.40;;;;;;;0.69;100.00;98903.17;105964;1285;58987;-70
2022/12/26 06:35:14;;;;;;;111.10;86.00;;;;;;;0.67;100.00;98906.89;106012;1287;58949;-70
2022/12/26 06:37:40;;;;;;;112.40;85.00;;;;;;;0.65;100.00;98913.73;105969;1292;58962;-71
2022/12/26 06:40:07;;;;;;;113.10;84.90;;;;;;;0.65;100.00;98913.23;105697;1293;59032;-70
2022/12/26 06:42:33;;;;;;;101.80;77.70;;;;;;;0.64;100.00;98922.16;105701;1294;66754;-70
2022/12/26 06:45:00;;;;;;;111.00;80.10;;;;;;;0.62;100.00;98914.88;105988;1292;59854;-70
2022/12/26 06:47:26;;;;;;;114.40;85.20;;;;;;;0.64;100.00;98917.27;105966;1292;58934;-70
2022/12/26 06:49:52;;;;;;;127.40;96.30;;;;;;;0.70;100.00;98915.20;105963;1285;58974;-71
2022/12/26 06:52:18;;;;;;;130.70;102.80;;;;;;;0.77;100.00;98915.34;105991;1291;58889;-71
2022/12/26 06:54:44;;;;;;;122.00;94.50;;;;;;;0.84;100.00;98917.73;105989;1287;59164;-71
2022/12/26 06:57:10;;;;;;;113.50;87.90;;;;;;;0.91;100.00;98910.23;105991;1289;58906;-71
2022/12/26 06:59:36;;;;;;;106.30;78.40;;;;;;;0.93;100.00;98898.08;105991;1291;58962;-70
2022/12/26 07:02:02;;;;;;;98.20;73.10;;;;;;;0.94;100.00;98896.29;105987;1285;58897;-70
2022/12/26 07:04:28;;;;;;;94.00;70.50;;;;;;;0.97;100.00;98899.02;106046;1287;58942;-70
2022/12/26 07:06:54;;;;;;;90.20;70.60;;;;;;;1.01;100.00;98907.64;106012;1291;59826;-70
2022/12/26 07:09:20;;;;;;;93.30;70.50;;;;;;;1.09;100.00;98908.63;105984;1290;59069;-69
2022/12/26 07:11:48;;;;;;;94.60;73.60;;;;;;;1.21;100.00;98907.56;105683;1286;59031;-70
2022/12/26 07:14:15;;;;;;;102.40;77.80;;;;;;;1.33;100.00;98912.27;105993;1291;59045;-69
2022/12/26 07:16:43;;;;;;;105.50;78.90;;;;;;;1.45;100.00;98915.92;106001;1285;66918;-70
2022/12/26 07:19:11;;;;;;;97.10;74.90;;;;;;;1.59;100.00;98904.46;106005;1282;59903;-70
2022/12/26 07:21:38;;;;;;;97.60;74.40;;;;;;;1.69;100.00;98893.27;105971;1282;62494;-69
2022/12/26 07:24:05;;;;;;;94.60;73.00;;;;;;;1.76;100.00;98889.02;105956;1291;59226;-69
2022/12/26 07:26:31;;;;;;;86.60;68.50;;;;;;;1.83;100.00;98891.23;106008;1287;58739;-69
2022/12/26 07:28:58;;;;;;;85.90;68.60;;;;;;;1.87;100.00;98897.05;105995;1287;59301;-70
2022/12/26 07:31:26;;;;;;;90.60;70.20;;;;;;;1.89;100.00;98898.75;105982;1291;59150;-70
2022/12/26 07:33:54;;;;;;;93.20;72.60;;;;;;;1.94;100.00;98898.41;105844;1283;64987;-70
2022/12/26 07:36:21;;;;;;;92.70;74.50;;;;;;;1.98;100.00;98905.27;105974;1284;59016;-71
2022/12/26 07:38:47;;;;;;;104.80;80.60;;;;;;;2.07;100.00;98914.45;106023;1290;58679;-70
2022/12/26 07:43:58;;;;;;;106.60;83.50;;;;;;;2.32;100.00;98920.43;105993;1287;59780;-71
2022/12/26 07:46:24;;;;;;;116.60;89.20;;;;;;;2.42;100.00;98926.03;105983;1291;63896;-71
2022/12/26 07:48:50;;;;;;;102.00;82.30;;;;;;;2.49;100.00;98927.02;105787;1290;58941;-71
2022/12/26 07:51:17;;;;;;;102.10;80.10;;;;;;;2.55;100.00;98928.59;106004;1295;58990;-71
2022/12/26 07:53:43;;;;;;;98.60;79.30;;;;;;;2.62;100.00;98930.07;105674;1284;59378;-71
2022/12/26 07:56:09;;;;;;;101.50;78.40;;;;;;;2.72;100.00;98938.49;106005;1292;59115;-72
2022/12/26 07:58:35;;;;;;;106.10;87.40;;;;;;;2.80;100.00;98945.91;105990;1291;59037;-71
2022/12/26 08:01:02;;;;;;;116.30;94.20;;;;;;;2.86;100.00;98939.19;105984;1291;58918;-71
2022/12/26 08:03:28;;;;;;;108.40;90.00;;;;;;;2.97;100.00;98936.00;105939;1295;59046;-71
2022/12/26 08:05:57;;;;;;;103.90;88.60;;;;;;;3.10;100.00;98929.55;105979;1291;59000;-70
2022/12/26 08:08:23;;;;;;;116.50;93.00;;;;;;;3.22;100.00;98922.39;105987;1284;59269;-71
2022/12/26 08:11:00;;;;;;;107.30;91.60;;;;;;;3.34;100.00;98917.92;105994;1287;58904;-71
2022/12/26 08:13:26;;;;;;;107.60;87.90;;;;;;;3.43;100.00;98916.16;105756;1283;59495;-71
2022/12/26 08:15:52;;;;;;;101.40;82.50;;;;;;;3.49;100.00;98916.42;106006;1292;58883;-72
2022/12/26 08:18:18;;;;;;;94.80;80.10;;;;;;;3.57;100.00;98917.18;106015;1287;58946;-70
2022/12/26 08:20:45;;;;;;;90.60;78.00;;;;;;;3.64;100.00;98924.98;105981;1285;59016;-71
2022/12/26 08:23:11;;;;;;;94.90;78.70;;;;;;;3.70;100.00;98930.02;105982;1291;59169;-71
2022/12/26 08:25:37;;;;;;;91.60;75.90;;;;;;;3.78;100.00;98937.10;105967;1291;58932;-71
2022/12/26 08:28:03;;;;;;;89.70;75.50;;;;;;;3.85;100.00;98935.21;106007;1289;59215;-70
2022/12/26 08:30:30;;;;;;;94.80;77.90;;;;;;;3.89;100.00;98935.23;105975;1282;59002;-71
2022/12/26 08:32:56;;;;;;;106.70;85.00;;;;;;;3.92;100.00;98933.86;106000;1292;58941;-71
2022/12/26 08:35:24;;;;;;;108.90;88.00;;;;;;;3.97;100.00;98934.56;105977;1287;59230;-72
2022/12/26 08:37:50;;;;;;;108.40;91.70;;;;;;;4.00;100.00;98942.89;105971;1292;58974;-71
2022/12/26 08:40:16;;;;;;;116.50;102.50;;;;;;;4.00;100.00;98943.20;106005;1288;58971;-71
2022/12/26 08:42:43;;;;;;;120.70;103.70;;;;;;;4.04;100.00;98939.54;105740;1295;58831;-71
2022/12/26 08:45:10;;;;;;;112.70;92.80;;;;;;;4.07;100.00;98936.59;105726;1294;59353;-71
2022/12/26 08:47:36;;;;;;;108.30;86.80;;;;;;;4.11;100.00;98938.89;105965;1292;58979;-71
2022/12/26 08:50:28;;;;;;;106.20;84.40;;;;;;;4.16;100.00;98942.73;106018;1292;58956;-71
2022/12/26 08:52:54;;;;;;;113.20;92.20;;;;;;;4.23;100.00;98945.94;105987;1289;59381;-71
2022/12/26 08:55:20;;;;;;;102.20;85.40;;;;;;;4.31;100.00;98942.64;106013;1290;59060;-72
2022/12/26 08:57:48;;;;;;;109.70;92.80;;;;;;;4.38;100.00;98943.93;106009;1292;58946;-71
2022/12/26 09:00:17;;;;;;;113.80;95.70;;;;;;;4.46;100.00;98936.39;105980;1289;59008;-71
2022/12/26 09:02:43;;;;;;;107.00;93.20;;;;;;;4.54;100.00;98934.80;104958;1288;1002545;-71
2022/12/26 09:05:12;;;;;;;113.30;93.60;;;;;;;4.60;100.00;98938.90;106014;1284;58924;-71
2022/12/26 09:07:38;;;;;;;106.00;87.60;;;;;;;4.65;100.00;98942.23;105999;1291;66928;-71
2022/12/26 09:10:05;;;;;;;108.50;90.80;;;;;;;4.66;100.00;98940.08;105985;1292;59129;-71
2022/12/26 09:12:32;;;;;;;106.90;90.30;;;;;;;4.70;100.00;98942.38;105687;1287;63917;-72
2022/12/26 09:14:58;;;;;;;106.90;91.40;;;;;;;4.77;100.00;98943.81;105982;1291;58972;-71
2022/12/26 09:17:26;;;;;;;100.60;84.50;;;;;;;4.89;100.00;98940.81;106009;1282;59121;-71
2022/12/26 09:19:54;;;;;;;87.20;71.20;;;;;;;5.02;100.00;98941.13;106007;1290;67129;-71
2022/12/26 09:25:04;;;;;;;99.10;88.20;;;;;;;5.39;100.00;98924.95;105997;1287;63677;-71
2022/12/26 09:27:32;;;;;;;101.90;90.40;;;;;;;5.57;100.00;98926.23;105679;1293;59315;-71
2022/12/26 09:29:58;;;;;;;101.60;88.20;;;;;;;5.72;100.00;98921.13;105747;1285;59027;-70
2022/12/26 09:32:24;;;;;;;99.10;88.20;;;;;;;5.85;100.00;98922.59;105989;1287;59302;-71
2022/12/26 09:34:51;;;;;;;102.50;90.60;;;;;;;5.98;100.00;98925.87;105953;1292;59060;-71
2022/12/26 09:37:17;;;;;;;103.70;88.50;;;;;;;6.06;100.00;98923.20;105662;1286;59025;-71
2022/12/26 09:39:43;;;;;;;98.20;81.40;;;;;;;6.13;100.00;98919.47;105985;1282;59010;-71
2022/12/26 09:42:15;;;;;;;73.90;62.00;;;;;;;6.22;100.00;98910.73;105929;1284;58913;-71
2022/12/26 09:44:55;;;;;;;64.90;50.90;;;;;;;6.34;100.00;98902.02;105982;1290;65958;-71
2022/12/26 09:47:30;;;;;;;57.00;44.90;;;;;;;6.52;100.00;98901.43;106008;1284;61171;-72
2022/12/26 09:50:28;;;;;;;38.30;33.40;;;;;;;6.71;100.00;98907.14;105980;1284;64033;-71
2022/12/26 09:53:01;;;;;;;42.00;33.80;;;;;;;6.94;100.00;98904.67;105411;1297;59215;-71
2022/12/26 09:55:36;;;;;;;38.60;31.50;;;;;;;7.11;100.00;98900.61;105452;1298;59395;-72
2022/12/26 09:58:13;;;;;;;37.10;29.00;;;;;;;7.25;100.00;98898.25;105446;1294;66081;-71
2022/12/26 10:00:49;;;;;;;39.60;30.10;;;;;;;7.39;100.00;98902.81;105445;1297;59748;-71
2022/12/26 10:03:15;;;;;;;39.40;29.90;;;;;;;7.48;100.00;98909.00;105435;1298;64062;-71
2022/12/26 10:06:00;;;;;;;36.20;27.50;;;;;;;7.57;100.00;98912.03;105391;1298;59000;-70
2022/12/26 10:08:35;;;;;;;31.00;25.30;;;;;;;7.65;100.00;98909.63;105459;1291;59089;-71
2022/12/26 10:11:09;;;;;;;29.30;20.50;;;;;;;7.70;100.00;98912.02;105425;1295;66891;-71
2022/12/26 10:13:48;;;;;;;23.20;18.00;;;;;;;7.76;100.00;98906.52;105428;1294;60873;-71
2022/12/26 10:16:23;;;;;;;21.40;17.90;;;;;;;7.85;100.00;98906.57;105406;1291;65466;-72
2022/12/26 10:19:04;;;;;;;21.60;16.30;;;;;;;7.95;100.00;98891.70;105449;1297;59085;-73
2022/12/26 10:21:50;;;;;;;19.20;16.10;;;;;;;8.03;100.00;98877.56;105479;1290;59197;-71
2022/12/26 10:24:22;;;;;;;21.60;16.80;;;;;;;8.14;100.00;98876.23;105457;1297;67156;-71
2022/12/26 10:26:58;;;;;;;21.00;15.20;;;;;;;8.25;100.00;98875.89;105249;1297;61030;-71
2022/12/26 10:29:29;;;;;;;19.60;14.30;;;;;;;8.36;100.00;98868.36;105634;1290;63969;-71
2022/12/26 10:32:00;;;;;;;18.10;14.40;;;;;;;8.46;100.00;98868.89;105988;1290;58925;-72
2022/12/26 10:34:34;;;;;;;18.20;14.20;;;;;;;8.52;100.00;98869.23;105993;1292;59081;-71
2022/12/26 10:37:09;;;;;;;19.40;14.10;;;;;;;8.58;100.00;98867.80;105686;1289;66334;-71
2022/12/26 10:39:42;;;;;;;17.70;13.90;;;;;;;8.63;100.00;98866.92;105676;1291;60000;-71
2022/12/26 10:42:17;;;;;;;19.40;15.10;;;;;;;8.70;100.00;98857.50;105970;1284;64855;-71
2022/12/26 10:44:43;;;;;;;22.10;16.30;;;;;;;8.79;100.00;98850.23;105987;1295;59005;-71
2022/12/26 10:47:20;;;;;;;22.20;16.30;;;;;;;8.89;100.00;98851.02;105763;1294;58958;-72
2022/12/26 10:49:48;;;;;;;20.10;14.70;;;;;;;9.01;100.00;98855.02;105957;1291;65552;-72
2022/12/26 10:52:17;;;;;;;17.60;14.40;;;;;;;9.14;100.00;98850.30;105847;1291;60857;-71
2022/12/26 10:54:49;;;;;;;17.60;14.70;;;;;;;9.25;100.00;98847.48;105965;1291;64939;-71
2022/12/26 10:57:17;;;;;;;17.90;13.90;;;;;;;9.35;100.00;98846.83;105997;1282;59247;-71
2022/12/26 10:59:47;;;;;;;16.40;13.60;;;;;;;9.44;100.00;98844.16;105966;1292;59420;-72
2022/12/26 11:02:24;;;;;;;19.60;13.60;;;;;;;9.50;100.00;98842.50;105996;1291;66836;-71
2022/12/26 11:05:04;;;;;;;15.50;12.90;;;;;;;9.58;100.00;98840.91;105635;1290;60093;-72
2022/12/26 11:07:47;;;;;;;17.70;13.80;;;;;;;9.66;100.00;98836.66;105962;1268;64088;-71
2022/12/26 11:10:19;;;;;;;16.20;13.20;;;;;;;9.76;100.00;98841.85;105987;1290;59039;-71
2022/12/26 11:13:05;;;;;;;17.30;13.80;;;;;;;9.83;100.00;98846.56;105962;1284;58828;-72
2022/12/26 11:15:37;;;;;;;18.70;14.40;;;;;;;9.88;100.00;98844.61;106003;1291;67187;-72
2022/12/26 11:18:34;;;;;;;20.30;14.80;;;;;;;9.93;100.00;98854.41;105992;1290;60721;-71
2022/12/26 11:21:22;;;;;;;19.50;15.40;;;;;;;9.94;100.00;98862.84;105820;1275;64919;-71
2022/12/26 11:23:51;;;;;;;21.40;15.60;;;;;;;9.92;100.00;98869.56;106010;1275;58904;-70
2022/12/26 11:26:23;;;;;;;18.00;14.70;;;;;;;9.89;100.00;98868.70;105821;1288;58956;-71
2022/12/26 11:29:23;;;;;;;19.10;14.40;;;;;;;9.85;100.00;98864.33;106073;1268;66001;-71
2022/12/26 11:31:56;;;;;;;17.00;14.40;;;;;;;9.83;100.00;98860.77;105536;1296;59942;-71
2022/12/26 11:34:48;;;;;;;18.70;13.30;;;;;;;9.81;100.00;98858.61;105520;1297;65188;-71
2022/12/26 11:37:22;;;;;;;15.40;13.20;;;;;;;9.78;100.00;98858.61;105529;1297;58974;-71
2022/12/26 11:39:50;;;;;;;19.10;15.40;;;;;;;9.75;100.00;98853.13;105368;1290;59167;-72
2022/12/26 11:42:20;;;;;;;18.70;14.50;;;;;;;9.70;100.00;98850.27;105524;1289;67081;-71
2022/12/26 11:44:51;;;;;;;17.60;14.40;;;;;;;9.66;100.00;98846.10;105532;1295;59972;-71
2022/12/26 11:47:21;;;;;;;15.30;12.90;;;;;;;9.63;100.00;98846.42;105445;1297;73396;-71
2022/12/26 11:50:07;;;;;;;14.20;12.10;;;;;;;9.64;100.00;98843.58;105530;1297;59010;-72
2022/12/26 11:52:36;;;;;;;16.20;13.80;;;;;;;9.63;100.00;98840.60;105535;1295;59346;-70
2022/12/26 11:55:21;;;;;;;16.20;13.60;;;;;;;9.62;100.00;98833.55;105555;1295;66980;-72
2022/12/26 11:58:05;;;;;;;21.20;16.00;;;;;;;9.61;100.00;98826.33;105527;1297;59644;-72
2022/12/26 12:00:43;;;;;;;20.60;14.90;;;;;;;9.60;100.00;98825.31;105511;1295;65108;-72
2022/12/26 12:03:13;;;;;;;21.80;16.30;;;;;;;9.62;100.00;98819.92;105528;1297;59038;-72
2022/12/26 12:06:19;;;;;;;20.00;15.20;;;;;;;9.64;100.00;98815.88;105563;1298;58809;-72
2022/12/26 12:08:56;;;;;;;23.10;15.40;;;;;;;9.67;100.00;98812.85;105864;1284;65881;-72
2022/12/26 12:11:31;;;;;;;18.80;14.20;;;;;;;9.68;100.00;98808.13;105959;1282;61031;-71
2022/12/26 12:14:15;;;;;;;19.20;14.30;;;;;;;9.73;100.00;98805.16;105961;1291;64960;-71
2022/12/26 12:16:53;;;;;;;19.10;14.70;;;;;;;9.78;100.00;98815.66;105941;1291;59150;-72
2022/12/26 12:19:45;;;;;;;20.80;15.60;;;;;;;9.82;100.00;98811.11;105978;1282;58930;-71
2022/12/26 12:22:21;;;;;;;20.40;15.30;;;;;;;9.86;100.00;98805.36;106019;1289;64507;-71
2022/12/26 12:25:06;;;;;;;22.60;16.00;;;;;;;9.86;100.00;98808.55;106059;1288;61322;-71
2022/12/26 12:27:39;;;;;;;20.00;16.20;;;;;;;9.83;100.00;98814.11;105787;1288;64660;-72
2022/12/26 12:31:12;;;;;;;19.60;15.90;;;;;;;9.79;100.00;98810.09;106040;1288;59359;-71
2022/12/26 12:33:51;;;;;;;26.40;18.20;;;;;;;9.71;100.00;98810.64;104976;1303;59012;-71
2022/12/26 12:36:27;;;;;;;25.40;20.60;;;;;;;9.66;100.00;98807.20;105019;1301;67046;-71
2022/12/26 12:38:56;;;;;;;25.60;20.20;;;;;;;9.65;100.00;98802.46;104996;1301;59779;-71
2022/12/26 12:41:52;;;;;;;23.30;18.10;;;;;;;9.66;100.00;98799.25;105054;1295;64942;-70
2022/12/26 12:44:28;;;;;;;26.70;18.40;;;;;;;9.65;100.00;98802.64;105043;1286;59132;-70
2022/12/26 12:47:09;;;;;;;26.70;17.90;;;;;;;9.66;100.00;98803.31;104977;1303;59014;-71
2022/12/26 12:49:56;;;;;;;27.50;19.70;;;;;;;9.67;100.00;98798.65;104989;1301;66019;-71
2022/12/26 12:52:37;;;;;;;28.70;20.80;;;;;;;9.66;100.00;98798.01;105001;1294;60948;-72
2022/12/26 12:55:24;;;;;;;26.30;18.60;;;;;;;9.65;100.00;98801.60;104981;1304;65143;-71
2022/12/26 12:58:02;;;;;;;24.20;17.30;;;;;;;9.65;100.00;98797.73;104949;1304;59122;-70
2022/12/26 13:00:39;;;;;;;23.70;16.70;;;;;;;9.67;100.00;98802.21;104988;1296;59316;-72
2022/12/26 13:03:14;;;;;;;25.50;17.80;;;;;;;9.71;100.00;98804.05;104976;1303;67322;-71
2022/12/26 13:06:04;;;;;;;21.60;16.20;;;;;;;9.74;100.00;98805.48;105435;1297;61126;-71
2022/12/26 13:08:37;;;;;;;18.80;14.40;;;;;;;9.75;100.00;98808.94;105277;1307;65011;-71
2022/12/26 13:11:22;;;;;;;22.50;16.10;;;;;;;9.77;100.00;98806.52;105900;1289;59887;-72
2022/12/26 13:13:54;;;;;;;21.80;15.70;;;;;;;9.82;100.00;98809.36;106041;1288;59714;-71
2022/12/26 13:16:32;;;;;;;24.00;17.00;;;;;;;9.84;100.00;98813.67;106018;1291;65982;-72
2022/12/26 13:19:05;;;;;;;23.30;17.80;;;;;;;9.83;100.00;98818.83;106037;1272;67340;-71
2022/12/26 13:21:39;;;;;;;27.60;20.20;;;;;;;9.81;100.00;98820.77;105940;1292;65124;-72
2022/12/26 13:24:24;;;;;;;25.30;20.70;;;;;;;9.77;100.00;98826.52;105978;1290;59134;-70
2022/12/26 13:26:53;;;;;;;29.50;21.60;;;;;;;9.71;100.00;98827.52;105959;1282;58896;-71
2022/12/26 13:29:44;;;;;;;30.30;22.00;;;;;;;9.63;100.00;98822.29;106040;1272;66976;-72
2022/12/26 13:32:15;;;;;;;28.90;20.30;;;;;;;9.59;100.00;98816.75;106017;1288;60955;-71
2022/12/26 13:34:43;;;;;;;31.10;22.90;;;;;;;9.59;100.00;98816.20;105970;1288;64809;-71
2022/12/26 13:37:38;;;;;;;28.00;22.70;;;;;;;9.62;100.00;98813.14;106034;1295;59347;-71
2022/12/26 13:40:19;;;;;;;28.80;22.00;;;;;;;9.65;100.00;98818.45;106057;1288;58939;-72
2022/12/26 13:45:36;;;;;;;25.10;18.90;;;;;;;9.64;100.00;98824.16;106080;1287;59864;-72